Latest Weather Observations for Clermont Airport

IDQ60801

Issued at 7:32 pm EST Friday 20 January 2017 (issued every 30 minutes, with the page automatically refreshed every 10 minutes)

About weather observations | Map of weather stations | Latest weather observations for QLD | Other Formats
Station Details ID: 035124 Name: CLERMONT AIRPORT Lat: -22.78 Lon: 147.62 Height: 270.27 m
Data from the previous 72 hours. | See also: Recent months at Clermont Airport
Date/Time
EST
Temp
°C
App
Temp
°C
Dew
Point
°C
Rel
Hum
%
Delta-T
°C
Wind Press
QNH
hPa
Press
MSL
hPa
Rain since
9am
mm
Dir  Spd
km/h
Gust
km/h
Spd
kts
Gust
kts
20/07:30pm 31.8 33.1 14.0 34 10.9 CALM 0 9 0 5 1007.1 1005.2 0.0
20/07:00pm 34.0 35.1 13.5 29 12.6 CALM 0 0 0 0 1006.7 1004.8 0.0
20/06:30pm 35.7 35.2 12.6 25 14.1 SSW 7 9 4 5 1006.2 1004.4 0.0
20/06:00pm 36.3 35.4 12.5 24 14.5 S 9 15 5 8 1005.9 1004.0 0.0
20/05:30pm 36.7 36.1 12.2 23 14.9 SSE 7 13 4 7 1005.5 1003.6 0.0
20/05:00pm 36.7 35.3 12.2 23 14.9 W 11 17 6 9 1005.5 1003.6 0.0
20/04:30pm 36.5 35.3 12.7 24 14.6 SW 11 15 6 8 1005.3 1003.4 0.0
20/04:00pm 36.6 35.9 12.1 23 14.9 S 7 15 4 8 1005.4 1003.5 0.0
20/03:30pm 36.8 37.0 14.7 26 13.9 NW 7 13 4 7 1005.9 1004.0 0.0
20/03:00pm 36.4 35.5 12.6 24 14.6 E 9 13 5 7 1006.6 1004.7 0.0
20/02:30pm 36.2 35.4 13.0 24 14.2 NW 9 17 5 9 1007.1 1005.2 0.0
20/02:00pm 35.6 34.7 12.5 24 14.1 NW 9 15 5 8 1007.7 1005.8 0.0
20/01:30pm 35.5 35.1 14.2 28 13.3 W 9 20 5 11 1008.3 1006.4 0.0
20/01:00pm 35.1 35.0 13.9 28 13.2 NNW 7 17 4 9 1008.9 1007.0 0.0
20/12:30pm 34.0 33.4 14.5 31 12.1 WNW 11 17 6 9 1009.4 1007.6 0.0
20/12:00pm 34.0 33.7 15.5 33 11.7 NNW 11 39 6 21 1009.9 1008.1 0.0
20/11:30am 32.8 31.6 13.9 31 11.6 NNW 13 22 7 12 1010.1 1008.3 0.0
20/11:00am 32.8 31.6 13.9 31 11.6 N 13 24 7 13 1010.6 1008.7 0.0
20/10:30am 31.9 31.1 15.0 36 10.5 N 13 24 7 13 1011.0 1009.1 0.0
20/10:00am 30.6 30.4 15.8 40 9.3 NNW 11 17 6 9 1011.3 1009.4 0.0
20/09:30am 30.0 30.1 17.5 47 8.0 NNW 13 22 7 12 1011.4 1009.5 0.0
20/09:00am 28.7 28.3 17.2 49 7.3 NNW 15 22 8 12 1011.5 1009.6 0.0
20/08:30am 27.8 27.7 17.9 54 6.3 NNW 15 20 8 11 1011.6 1009.7 0.0
20/08:00am 27.0 26.5 17.8 57 5.9 NNW 17 24 9 13 1011.6 1009.7 0.0
20/07:30am 26.1 25.1 18.0 61 5.2 NNW 20 30 11 16 1011.3 1009.4 0.0
20/07:00am 25.1 25.4 17.8 64 4.6 NNW 13 19 7 10 1011.4 1009.5 0.0
20/06:30am 23.8 24.5 17.1 66 4.2 NNW 9 13 5 7 1011.1 1009.2 0.0
20/06:00am 23.0 23.6 16.8 68 3.8 NNW 9 13 5 7 1010.4 1008.5 0.0
20/05:30am 23.1 23.5 16.2 65 4.2 NNW 9 17 5 9 1009.7 1007.9 0.0
20/05:00am 23.4 23.7 16.0 63 4.5 N 9 17 5 9 1008.9 1007.0 0.0
20/04:30am 23.4 24.1 15.5 61 4.8 NNW 6 9 3 5 1008.7 1006.8 0.0
20/04:00am 24.0 24.4 14.7 56 5.6 N 6 9 3 5 1008.0 1006.1 0.0
20/03:30am 24.9 25.0 14.4 52 6.3 NNW 7 11 4 6 1008.3 1006.4 0.0
20/03:00am 25.8 25.1 14.3 49 6.9 N 11 17 6 9 1008.5 1006.6 0.0
20/02:30am 26.8 26.8 14.2 46 7.6 N 7 17 4 9 1008.4 1006.5 0.0
20/02:00am 27.0 26.5 13.7 44 8.0 N 9 13 5 7 1008.4 1006.5 0.0
20/01:30am 26.9 27.6 13.3 43 8.1 NE 2 6 1 3 1008.6 1006.7 0.0
20/01:00am 26.8 26.6 13.5 44 7.9 NNE 7 11 4 6 1008.4 1006.5 0.0
20/12:30am 28.1 27.0 13.2 39 8.9 N 11 17 6 9 1008.7 1006.8 0.0
20/12:00am 28.5 27.7 12.8 38 9.3 N 9 13 5 7 1008.7 1006.8 0.0
 
Date/Time
EST
Temp
°C
App
Temp
°C
Dew
Point
°C
Rel
Hum
%
Delta-T
°C
Wind Press
QNH
hPa
Press
MSL
hPa
Rain since
9am
mm
Dir  Spd
km/h
Gust
km/h
Spd
kts
Gust
kts
19/11:30pm 27.8 27.7 13.3 40 8.7 N 6 7 3 4 1008.6 1006.7 0.0
19/11:00pm 27.1 26.7 13.1 42 8.3 N 7 9 4 5 1008.7 1006.8 0.0
19/10:30pm 29.3 28.3 12.3 35 10.1 N 9 13 5 7 1008.8 1006.9 0.0
19/10:00pm 28.6 28.2 12.9 38 9.4 NNW 7 9 4 5 1008.6 1006.7 0.0
19/09:30pm 28.9 28.8 13.2 38 9.4 N 6 6 3 3 1008.5 1006.6 0.0
19/09:00pm 30.1 29.7 12.5 34 10.5 N 6 9 3 5 1008.3 1006.4 0.0
19/08:30pm 30.7 29.7 11.1 30 11.4 N 7 9 4 5 1008.2 1006.3 0.0
19/08:00pm 30.9 30.0 11.3 30 11.5 NNE 7 11 4 6 1007.6 1005.7 0.0
19/07:30pm 33.5 32.8 11.9 27 12.9 NE 7 13 4 7 1007.3 1005.4 0.0
19/07:00pm 34.6 34.2 12.3 26 13.5 ENE 6 13 3 7 1006.9 1005.0 0.0
19/06:30pm 35.3 35.3 13.5 27 13.4 ENE 6 13 3 7 1006.8 1004.9 0.0
19/06:00pm 35.9 36.2 14.5 27 13.4 ENE 6 13 3 7 1006.6 1004.7 0.0
19/05:30pm 36.5 35.7 15.0 27 13.6 ENE 13 22 7 12 1006.4 1004.5 0.0
19/05:00pm 36.1 35.3 14.1 26 13.7 ESE 11 24 6 13 1006.2 1004.4 0.0
19/04:30pm 35.9 36.0 14.5 27 13.4 ENE 7 11 4 6 1006.5 1004.6 0.0
19/04:00pm 37.1 36.3 15.0 27 14.0 SE 13 22 7 12 1006.4 1004.5 0.0
19/03:30pm 36.8 36.2 14.7 26 13.9 ESE 11 22 6 12 1006.8 1004.9 0.0
19/03:00pm 36.5 36.4 15.0 27 13.6 SSE 9 17 5 9 1007.2 1005.3 0.0
19/02:30pm 36.3 36.7 15.4 28 13.3 SE 7 19 4 10 1007.9 1006.0 0.0
19/02:00pm 35.8 35.9 16.5 31 12.4 ESE 11 20 6 11 1008.5 1006.6 0.0
19/01:30pm 35.8 37.3 17.5 34 11.9 N 6 9 3 5 1009.1 1007.2 0.0
19/01:00pm 35.0 35.0 16.3 32 12.0 S 11 17 6 9 1009.7 1007.9 0.0
19/12:30pm 34.5 35.5 17.7 37 11.0 S 9 17 5 9 1010.3 1008.4 0.0
19/12:00pm 34.3 36.3 19.1 40 10.1 SW 7 13 4 7 1010.9 1009.0 0.0
19/11:30am 33.2 35.2 20.0 45 8.8 W 9 17 5 9 1011.2 1009.3 0.0
19/11:00am 32.7 35.1 20.9 49 8.0 NW 9 17 5 9 1011.3 1009.4 0.0
19/10:30am 31.9 33.8 21.4 53 7.1 WSW 13 22 7 12 1011.8 1009.9 0.0
19/10:00am 30.8 32.1 21.6 58 6.3 NW 17 24 9 13 1012.0 1010.1 0.0
19/09:30am 29.4 30.8 21.9 64 5.1 NW 17 24 9 13 1012.5 1010.6 0.0
19/09:00am 28.9 31.0 22.4 68 4.4 NW 15 26 8 14 1012.6 1010.7 0.0
19/08:30am 27.8 29.0 22.1 71 3.9 NW 19 26 10 14 1012.7 1010.9 0.0
19/08:00am 27.4 28.7 22.4 74 3.4 NW 19 24 10 13 1012.7 1010.9 0.0
19/07:30am 26.7 28.3 22.1 76 3.1 NNW 17 26 9 14 1012.8 1011.0 0.0
19/07:00am 25.8 28.0 21.9 79 2.6 NNW 13 20 7 11 1012.8 1011.0 0.0
19/06:30am 25.2 27.7 21.7 81 2.3 NNW 11 19 6 10 1012.2 1010.3 0.0
19/06:00am 24.5 26.8 21.4 83 2.1 N 11 15 6 8 1011.8 1009.9 0.0
19/05:30am 24.4 27.1 21.3 83 2.1 N 9 13 5 7 1011.5 1009.6 0.0
19/05:00am 24.3 27.3 20.8 81 2.3 N 6 7 3 4 1011.4 1009.5 0.0
19/04:30am 24.7 27.6 21.0 80 2.5 NNW 7 11 4 6 1010.9 1009.0 0.0
19/04:00am 24.7 27.7 21.2 81 2.3 N 7 9 4 5 1010.6 1008.7 0.0
19/03:30am 24.1 27.4 20.0 78 2.7 N 2 4 1 2 1010.6 1008.7 0.0
19/03:00am 24.9 28.0 21.0 79 2.6 NNE 6 7 3 4 1010.7 1008.8 0.0
19/02:30am 24.8 27.8 20.9 79 2.6 NNE 6 9 3 5 1010.8 1008.9 0.0
19/02:00am 25.4 27.5 20.9 76 3.0 N 11 17 6 9 1011.0 1009.1 0.0
19/01:30am 23.6 25.6 18.7 74 3.1 N 6 7 3 4 1011.1 1009.2 0.0
19/01:00am 24.5 27.3 18.0 67 4.1 CALM 0 4 0 2 1011.3 1009.4 0.0
19/12:30am 24.9 27.5 18.4 67 4.2 NNW 2 4 1 2 1011.6 1009.7 0.0
19/12:00am 24.3 27.3 18.5 70 3.7 CALM 0 4 0 2 1011.8 1009.9 0.0
 
Date/Time
EST
Temp
°C
App
Temp
°C
Dew
Point
°C
Rel
Hum
%
Delta-T
°C
Wind Press
QNH
hPa
Press
MSL
hPa
Rain since
9am
mm
Dir  Spd
km/h
Gust
km/h
Spd
kts
Gust
kts
18/11:30pm 23.5 26.2 18.6 74 3.1 NNE 2 6 1 3 1011.8 1009.9 0.0
18/11:00pm 24.7 27.8 18.6 69 3.9 CALM 0 0 0 0 1011.9 1010.0 0.0
18/10:30pm 25.4 27.7 17.8 62 4.8 WNW 2 2 1 1 1011.9 1010.0 0.0
18/10:00pm 24.6 27.9 19.0 71 3.6 CALM 0 7 0 4 1012.0 1010.1 0.0
18/09:30pm 26.6 29.7 18.7 62 5.1 CALM 0 0 0 0 1011.8 1009.9 0.0
18/09:00pm 26.3 28.2 17.6 58 5.5 SW 4 4 2 2 1011.5 1009.6 0.0
18/08:30pm 27.7 29.7 16.9 51 6.8 SSW 2 2 1 1 1011.2 1009.3 0.0
18/08:00pm 28.9 31.2 16.8 48 7.7 CALM 0 4 0 2 1011.2 1009.3 0.0
18/07:30pm 31.0 31.7 14.6 37 10.1 SSW 4 4 2 2 1010.8 1008.9 0.0
18/07:00pm 32.1 32.7 14.3 34 11.0 SW 4 6 2 3 1010.6 1008.7 0.0
18/06:30pm 33.3 33.4 14.4 32 11.7 SSW 7 11 4 6 1010.4 1008.5 0.0
18/06:00pm 34.1 33.8 15.5 32 11.8 SSW 11 19 6 10 1010.5 1008.6 0.0
18/05:30pm 34.5 33.6 14.9 31 12.3 SSW 13 19 7 10 1010.3 1008.4 0.0
18/05:00pm 34.6 34.9 15.0 31 12.3 S 7 19 4 10 1010.3 1008.4 0.0
18/04:30pm 34.9 34.5 15.3 31 12.4 S 11 17 6 9 1010.5 1008.6 0.0
18/04:00pm 34.7 34.9 14.6 30 12.6 SSE 7 13 4 7 1010.7 1008.8 0.0
18/03:30pm 35.0 35.8 16.3 32 12.0 SW 7 15 4 8 1011.0 1009.1 0.0
18/03:00pm 34.3 34.1 14.7 30 12.3 S 9 17 5 9 1011.4 1009.5 0.0
18/02:30pm 34.1 33.8 15.5 32 11.7 SE 11 20 6 11 1011.9 1010.0 0.0
18/02:00pm 34.3 34.3 16.2 34 11.6 SE 11 17 6 9 1012.3 1010.4 0.0
18/01:30pm 33.5 34.1 15.9 34 11.2 SW 7 15 4 8 1012.9 1011.1 0.0
18/01:00pm 33.1 33.2 15.6 35 11.0 SW 9 17 5 9 1013.3 1011.5 0.0
18/12:30pm 32.4 32.3 15.0 35 10.8 SSW 9 19 5 10 1013.7 1011.9 0.0
18/12:00pm 32.0 32.5 15.1 36 10.5 E 6 11 3 6 1014.0 1012.2 0.0
18/11:30am 31.6 31.6 15.1 36 10.3 NNE 9 15 5 8 1014.7 1012.8 0.0
18/11:00am 30.7 30.5 14.8 38 9.8 N 9 15 5 8 1015.0 1013.1 0.0
18/10:30am 30.0 30.4 15.3 41 9.1 ENE 7 19 4 10 1015.5 1013.6 0.0
18/10:00am 29.0 29.9 16.2 46 8.0 N 6 11 3 6 1015.7 1013.8 0.0
18/09:30am 28.1 29.0 17.6 53 6.7 NNE 9 15 5 8 1016.0 1014.2 0.0
18/09:00am 27.0 28.4 17.8 57 5.9 NNE 7 13 4 7 1016.3 1014.5 0.0
18/08:30am 26.1 27.7 19.2 65 4.5 N 9 15 5 8 1016.5 1014.7 0.0
18/08:00am 24.9 26.7 19.5 72 3.5 NNE 9 15 5 8 1016.4 1014.6 0.0
18/07:30am 24.1 26.5 19.6 76 2.9 NNE 6 9 3 5 1016.5 1014.7 0.0
18/07:00am 22.9 26.1 18.9 78 2.6 CALM 0 0 0 0 1016.4 1014.6 0.0
18/06:30am 21.9 25.4 19.5 86 1.5 CALM 0 0 0 0 1016.1 1014.3 0.0
18/06:00am 19.9 22.6 18.6 92 0.8 WSW 2 4 1 2 1015.6 1013.7 0.0
18/05:30am 20.0 23.0 18.5 91 0.9 CALM 0 0 0 0 1014.9 1013.0 0.0
18/05:00am 20.1 23.0 18.2 89 1.2 CALM 0 0 0 0 1014.5 1012.6 0.0
18/04:30am 21.1 24.3 18.9 87 1.4 CALM 0 0 0 0 1014.3 1012.4 0.0
18/04:00am 21.4 24.6 18.8 85 1.7 CALM 0 0 0 0 1014.0 1012.2 0.0
18/03:30am 21.9 25.1 18.9 83 1.9 CALM 0 0 0 0 1013.9 1012.1 0.0
18/03:00am 22.4 25.3 19.0 81 2.2 NNE 2 4 1 2 1013.9 1012.1 0.0
18/02:30am 22.9 25.3 18.9 78 2.6 NNE 4 4 2 2 1013.9 1012.1 0.0
18/02:00am 23.3 25.4 19.0 77 2.8 NNE 6 7 3 4 1014.0 1012.2 0.0
18/01:30am 24.3 26.6 19.4 74 3.2 NNE 6 9 3 5 1014.3 1012.4 0.0
18/01:00am 25.0 26.8 19.6 72 3.5 NNE 9 19 5 10 1014.6 1012.7 0.0
18/12:30am 24.7 26.9 19.5 73 3.4 NNE 7 11 4 6 1014.6 1012.7 0.0
18/12:00am 25.6 27.0 19.5 69 4.0 NNE 11 19 6 10 1015.0 1013.1 0.0
 
Date/Time
EST
Temp
°C
App
Temp
°C
Dew
Point
°C
Rel
Hum
%
Delta-T
°C
Wind Press
QNH
hPa
Press
MSL
hPa
Rain since
9am
mm
Dir  Spd
km/h
Gust
km/h
Spd
kts
Gust
kts
17/11:30pm 26.4 28.2 19.5 66 4.5 NNE 9 17 5 9 1015.1 1013.2 0.0
17/11:00pm 26.9 28.7 19.5 64 4.8 NE 9 15 5 8 1015.3 1013.4 0.0
17/10:30pm 27.4 28.9 18.9 59 5.5 NE 9 15 5 8 1015.2 1013.3 0.0
17/10:00pm 27.6 29.1 18.0 55 6.2 NE 7 15 4 8 1014.9 1013.0 0.0
17/09:30pm 28.1 29.7 18.2 55 6.4 NE 7 13 4 7 1014.8 1012.9 0.0
17/09:00pm 28.8 29.9 18.0 52 6.9 NE 9 17 5 9 1014.5 1012.6 0.0
17/08:30pm 29.4 31.0 18.2 51 7.2 NE 7 13 4 7 1014.0 1012.2 0.0
17/08:00pm 29.8 31.7 18.9 52 7.1 ENE 7 11 4 6 1013.7 1011.9 0.0

Other Formats:

Comma delimited format used in spreadsheet applications
http://www.bom.gov.au/fwo/IDQ60801/IDQ60801.94395.axf

JavaScript Object Notation format (JSON) in row-major order
http://www.bom.gov.au/fwo/IDQ60801/IDQ60801.94395.json